Time;durP1;ratioP1;P1;durP2;ratioP2;P2;SDS_P1;SDS_P2;PMS_P1;PMS_P2;Temp;Humidity;BMP_temperature;BMP_pressure;BME280_temperature;BME280_humidity;BME280_pressure;Samples;Min_cycle;Max_cycle;Signal;HPM_P1;HPM_P2
2022/10/19 00:01:13;;;;;;;8.27;2.33;;;;;;;11.35;85.91;102027.47;4982638;28;20231;-85
2022/10/19 00:03:41;;;;;;;7.90;2.17;;;;;;;11.34;85.96;102025.75;4986824;28;20201;-85
2022/10/19 00:06:12;;;;;;;7.77;2.30;;;;;;;11.29;85.60;102017.06;4981074;28;20218;-84
2022/10/19 00:08:39;;;;;;;10.47;2.37;;;;;;;11.27;85.87;102018.97;4983607;28;20213;-84
2022/10/19 00:11:06;;;;;;;4.43;2.33;;;;;;;11.26;85.65;102022.56;4988840;28;20225;-85
2022/10/19 00:13:32;;;;;;;6.90;2.70;;;;;;;11.23;85.89;102017.38;4985947;28;20251;-83
2022/10/19 00:16:00;;;;;;;8.13;2.57;;;;;;;11.20;85.70;102006.81;4986052;28;20210;-84
2022/10/19 00:18:26;;;;;;;9.03;2.67;;;;;;;11.14;85.61;102006.16;4984527;28;20212;-84
2022/10/19 00:20:53;;;;;;;8.03;2.73;;;;;;;11.11;85.78;102011.63;4984807;28;20219;-83
2022/10/19 00:23:21;;;;;;;8.20;2.60;;;;;;;11.06;85.64;102021.63;4987604;28;20203;-84
2022/10/19 00:25:55;;;;;;;6.33;2.30;;;;;;;11.01;85.58;102010.31;4984125;28;20259;-84
2022/10/19 00:28:21;;;;;;;11.30;2.90;;;;;;;10.97;85.64;102007.81;4981929;28;20215;-84
2022/10/19 00:30:48;;;;;;;5.77;2.10;;;;;;;10.92;85.65;102018.72;4983634;28;20564;-85
2022/10/19 00:33:19;;;;;;;8.93;2.50;;;;;;;10.89;85.82;102024.16;4981088;28;21026;-85
2022/10/19 00:35:47;;;;;;;7.20;2.27;;;;;;;10.85;85.91;102025.22;4987654;28;20212;-85
2022/10/19 00:38:13;;;;;;;7.83;2.80;;;;;;;10.82;86.24;102030.69;4980574;28;20215;-85
2022/10/19 00:40:40;;;;;;;7.33;3.00;;;;;;;10.81;86.11;102030.75;4985801;28;20628;-86
2022/10/19 00:43:12;;;;;;;7.80;2.60;;;;;;;10.77;86.13;102035.31;4986844;28;20196;-85
2022/10/19 00:45:39;;;;;;;4.97;2.37;;;;;;;10.71;85.88;102040.94;4982135;28;20212;-85
2022/10/19 00:48:05;;;;;;;5.83;2.13;;;;;;;10.62;85.77;102044.84;4985912;28;20273;-84
2022/10/19 00:50:33;;;;;;;6.83;2.30;;;;;;;10.57;85.78;102040.66;4981614;28;20603;-84
2022/10/19 00:53:00;;;;;;;7.03;2.00;;;;;;;10.52;86.40;102037.28;4983052;28;20223;-84
2022/10/19 00:55:26;;;;;;;8.97;2.80;;;;;;;10.44;85.88;102027.81;4985275;28;20214;-84
2022/10/19 00:57:53;;;;;;;5.80;2.40;;;;;;;10.39;85.83;102029.78;4980236;28;20592;-84
2022/10/19 01:00:20;;;;;;;5.13;2.30;;;;;;;10.35;86.02;102038.84;4986790;28;20238;-84
2022/10/19 01:02:46;;;;;;;7.70;2.43;;;;;;;10.31;85.83;102031.91;4984866;28;20208;-84
2022/10/19 01:05:14;;;;;;;9.03;2.33;;;;;;;10.28;86.41;102032.03;4981282;28;20205;-84
2022/10/19 01:07:42;;;;;;;5.67;2.50;;;;;;;10.25;86.29;102029.47;4984841;28;20211;-84
2022/10/19 01:10:09;;;;;;;8.73;2.50;;;;;;;10.21;86.25;102030.53;4981038;28;20233;-84
2022/10/19 01:12:51;;;;;;;6.13;2.40;;;;;;;10.16;86.42;102034.28;4983225;28;20211;-84
2022/10/19 01:15:29;;;;;;;4.43;2.30;;;;;;;10.12;86.56;102030.00;4984313;28;20208;-84
2022/10/19 01:18:05;;;;;;;6.33;2.30;;;;;;;10.08;87.04;102035.44;4981812;28;20286;-83
2022/10/19 01:21:08;;;;;;;5.93;2.53;;;;;;;10.09;87.48;102036.31;4985916;28;20238;-84
2022/10/19 01:24:05;;;;;;;7.00;2.70;;;;;;;10.10;87.42;102027.41;4987228;28;20204;-84
2022/10/19 01:26:49;;;;;;;9.87;2.90;;;;;;;10.11;88.01;102010.50;4985806;28;20555;-84
2022/10/19 01:29:22;;;;;;;5.40;2.20;;;;;;;10.14;88.24;102018.38;4980591;28;20691;-85
2022/10/19 01:31:57;;;;;;;8.27;2.30;;;;;;;10.18;88.65;102016.47;4980307;28;20212;-84
2022/10/19 01:34:29;;;;;;;9.80;2.33;;;;;;;10.19;88.80;102016.44;4987690;28;20602;-84
2022/10/19 01:37:01;;;;;;;6.83;2.90;;;;;;;10.21;89.16;102025.19;4979079;28;20207;-84
2022/10/19 01:39:38;;;;;;;6.57;2.53;;;;;;;10.24;89.14;102018.88;4981186;28;20219;-84
2022/10/19 01:42:12;;;;;;;6.30;2.27;;;;;;;10.25;89.08;102020.63;4978380;28;20205;-84
2022/10/19 01:44:45;;;;;;;9.30;2.37;;;;;;;10.27;89.09;102024.09;4981748;28;20557;-84
2022/10/19 01:47:18;;;;;;;5.47;2.20;;;;;;;10.27;88.89;102019.63;4983496;28;20658;-85
2022/10/19 01:49:49;;;;;;;5.50;2.30;;;;;;;10.29;88.81;102022.25;4985995;28;20231;-84
2022/10/19 01:52:20;;;;;;;13.20;2.43;;;;;;;10.29;88.91;102022.25;4987716;28;20200;-84
2022/10/19 01:54:50;;;;;;;6.47;2.23;;;;;;;10.30;88.82;102014.19;4981342;28;20706;-84
2022/10/19 01:57:22;;;;;;;7.60;2.40;;;;;;;10.31;88.77;102015.94;4983099;28;20215;-85
2022/10/19 01:59:49;;;;;;;6.77;2.27;;;;;;;10.33;88.48;102008.75;4983982;28;20227;-85
2022/10/19 02:02:19;;;;;;;10.57;2.77;;;;;;;10.34;88.59;102010.50;4982392;28;20215;-84
2022/10/19 02:04:48;;;;;;;5.47;2.00;;;;;;;10.36;88.23;102013.09;4991903;28;20207;-85
2022/10/19 02:07:16;;;;;;;8.93;2.30;;;;;;;10.37;88.30;102014.81;4988340;28;20203;-85
2022/10/19 02:09:42;;;;;;;6.93;2.20;;;;;;;10.39;88.03;102016.47;4983679;28;20728;-84
2022/10/19 02:12:11;;;;;;;8.20;2.43;;;;;;;10.39;87.74;102016.47;4987179;28;20200;-84
2022/10/19 02:14:42;;;;;;;4.23;2.30;;;;;;;10.40;87.84;102017.34;4988082;28;20240;-85
2022/10/19 02:17:11;;;;;;;5.23;1.93;;;;;;;10.40;87.53;102017.34;4986189;28;20211;-85
2022/10/19 02:19:39;;;;;;;6.00;2.27;;;;;;;10.40;87.29;102020.88;4989124;28;20228;-84
2022/10/19 02:22:06;;;;;;;8.00;1.73;;;;;;;10.40;87.02;102025.31;4986215;28;20210;-84
2022/10/19 02:24:33;;;;;;;10.43;2.70;;;;;;;10.40;87.13;102020.00;4986229;28;20204;-84
2022/10/19 02:27:00;;;;;;;5.40;2.13;;;;;;;10.41;86.93;102030.59;4993133;28;20211;-85
2022/10/19 02:29:27;;;;;;;3.77;2.30;;;;;;;10.41;86.59;102017.28;4987014;28;20537;-85
2022/10/19 02:31:54;;;;;;;4.63;1.87;;;;;;;10.44;86.52;102027.81;4990518;28;20208;-85
2022/10/19 02:34:21;;;;;;;5.83;2.20;;;;;;;10.44;86.45;102017.16;4991085;28;20300;-84
2022/10/19 02:36:49;;;;;;;11.93;3.00;;;;;;;10.44;86.52;102018.94;4985058;28;20216;-84
2022/10/19 02:39:15;;;;;;;4.07;1.90;;;;;;;10.44;86.05;102005.63;4994141;28;20210;-85
2022/10/19 02:41:45;;;;;;;8.17;2.00;;;;;;;10.44;86.11;102013.63;4997595;28;20231;-84
2022/10/19 02:44:18;;;;;;;4.97;2.23;;;;;;;10.46;86.10;102013.56;4990713;28;20207;-85
2022/10/19 02:46:49;;;;;;;12.17;2.50;;;;;;;10.46;86.20;102016.22;4989852;28;20237;-84
2022/10/19 02:49:16;;;;;;;4.80;1.80;;;;;;;10.47;86.07;102015.31;4981984;28;20200;-86
2022/10/19 02:51:59;;;;;;;5.73;1.87;;;;;;;10.47;86.30;102018.84;4994927;28;20211;-84
2022/10/19 02:54:26;;;;;;;5.63;1.80;;;;;;;10.49;86.31;102026.75;4992049;28;20565;-84
2022/10/19 02:56:53;;;;;;;5.00;1.77;;;;;;;10.48;85.79;102020.56;4993297;28;20213;-84
2022/10/19 02:59:19;;;;;;;11.27;2.33;;;;;;;10.48;85.71;102028.56;4993702;28;20242;-84
2022/10/19 03:01:46;;;;;;;6.03;2.17;;;;;;;10.49;85.85;102018.78;4994459;28;20215;-85
2022/10/19 03:04:12;;;;;;;4.37;1.80;;;;;;;10.48;85.58;102020.56;4991675;28;20218;-85
2022/10/19 03:06:39;;;;;;;3.33;1.77;;;;;;;10.48;85.71;102022.38;4999135;28;20666;-84
2022/10/19 03:09:07;;;;;;;5.50;1.97;;;;;;;10.49;85.58;102029.44;4991584;28;20214;-84
2022/10/19 03:11:33;;;;;;;12.80;2.30;;;;;;;10.49;85.60;102032.97;4985233;28;20683;-84
2022/10/19 03:14:00;;;;;;;4.50;1.93;;;;;;;10.48;85.62;102033.03;4987347;28;20232;-84
2022/10/19 03:16:26;;;;;;;5.20;2.00;;;;;;;10.47;85.30;102039.28;4992158;28;20212;-84
2022/10/19 03:18:53;;;;;;;5.20;2.20;;;;;;;10.46;85.58;102030.41;4994810;28;20211;-85
2022/10/19 03:21:20;;;;;;;4.40;2.07;;;;;;;10.46;85.42;102037.53;4999951;28;20230;-84
2022/10/19 03:23:46;;;;;;;7.37;2.13;;;;;;;10.44;85.28;102025.16;4982931;28;20203;-85
2022/10/19 03:26:16;;;;;;;4.37;2.10;;;;;;;10.44;85.19;102026.94;4991062;28;20211;-85
2022/10/19 03:28:42;;;;;;;7.43;2.33;;;;;;;10.43;85.20;102033.19;4997007;28;20211;-85
2022/10/19 03:31:09;;;;;;;6.60;2.30;;;;;;;10.43;85.15;102038.53;4992577;28;20227;-85
2022/10/19 03:33:35;;;;;;;4.13;2.20;;;;;;;10.41;85.13;102037.72;4993509;28;20576;-85
2022/10/19 03:36:21;;;;;;;3.93;2.27;;;;;;;10.41;85.33;102038.59;4988373;28;20756;-85
2022/10/19 03:38:50;;;;;;;9.77;2.80;;;;;;;10.40;85.31;102036.84;4988852;28;20222;-85
2022/10/19 03:41:19;;;;;;;5.43;2.13;;;;;;;10.40;85.24;102034.19;4993170;28;20607;-84
2022/10/19 03:43:45;;;;;;;6.23;2.43;;;;;;;10.41;85.18;102030.59;4994410;28;20606;-84
2022/10/19 03:46:12;;;;;;;5.27;2.17;;;;;;;10.42;85.26;102032.31;4993723;28;20216;-84
2022/10/19 03:48:38;;;;;;;5.73;2.07;;;;;;;10.41;85.14;102019.94;4993590;28;20215;-84
2022/10/19 03:51:08;;;;;;;5.43;2.17;;;;;;;10.41;85.39;102030.59;4988441;28;20227;-85
2022/10/19 03:53:34;;;;;;;7.20;2.27;;;;;;;10.41;85.33;102043.03;5004853;28;20211;-85
2022/10/19 03:56:03;;;;;;;4.50;2.03;;;;;;;10.40;85.09;102038.66;4995607;28;20234;-85
2022/10/19 03:58:31;;;;;;;6.33;2.60;;;;;;;10.41;85.08;102043.03;5002297;28;20220;-84
2022/10/19 04:00:58;;;;;;;4.20;2.20;;;;;;;10.42;85.20;102048.31;4983416;28;20443;-84
2022/10/19 04:03:24;;;;;;;5.63;2.50;;;;;;;10.42;85.01;102042.97;4998814;28;20215;-84
2022/10/19 04:05:51;;;;;;;12.83;2.50;;;;;;;10.44;85.35;102041.13;4989180;28;20208;-84
2022/10/19 04:08:18;;;;;;;3.73;2.10;;;;;;;10.45;85.45;102050.00;4991841;28;20207;-84
2022/10/19 04:10:45;;;;;;;5.73;2.50;;;;;;;10.45;85.79;102047.31;4989629;28;20726;-84
2022/10/19 04:13:11;;;;;;;9.37;3.17;;;;;;;10.47;85.47;102055.25;4989910;28;20207;-84
2022/10/19 04:15:39;;;;;;;10.00;2.50;;;;;;;10.48;86.12;102043.69;4983685;28;20246;-84
2022/10/19 04:18:05;;;;;;;7.03;2.90;;;;;;;10.48;85.44;102051.66;4992943;28;20563;-84
2022/10/19 04:20:32;;;;;;;5.83;2.53;;;;;;;10.49;85.55;102056.06;4984878;28;20686;-84
2022/10/19 04:22:59;;;;;;;7.63;2.57;;;;;;;10.50;85.69;102052.47;4991702;28;20209;-83
2022/10/19 04:25:25;;;;;;;6.70;2.27;;;;;;;10.50;85.73;102053.34;4992641;28;20207;-84
2022/10/19 04:27:52;;;;;;;9.53;2.60;;;;;;;10.49;85.67;102054.28;4993195;28;20211;-84
2022/10/19 04:30:18;;;;;;;5.97;2.60;;;;;;;10.50;85.71;102047.16;4991929;28;20314;-84
2022/10/19 04:32:46;;;;;;;6.63;2.17;;;;;;;10.50;85.77;102037.34;4982397;28;20211;-84
2022/10/19 04:35:12;;;;;;;5.17;2.10;;;;;;;10.49;85.54;102046.28;4990679;28;20236;-84
2022/10/19 04:37:39;;;;;;;5.70;2.40;;;;;;;10.51;85.77;102035.56;4989353;28;20218;-84
2022/10/19 04:40:07;;;;;;;5.57;2.17;;;;;;;10.50;85.84;102033.81;4987837;28;20229;-84
2022/10/19 04:42:34;;;;;;;6.57;2.40;;;;;;;10.50;85.89;102042.69;4987693;28;20580;-84
2022/10/19 04:45:00;;;;;;;4.80;2.27;;;;;;;10.53;85.84;102055.00;4997386;28;20574;-85
2022/10/19 04:47:28;;;;;;;4.93;2.00;;;;;;;10.53;85.78;102041.69;4995325;28;20217;-85
2022/10/19 04:49:56;;;;;;;4.17;2.30;;;;;;;10.53;85.96;102047.03;4994977;28;20233;-84
2022/10/19 04:52:22;;;;;;;3.70;2.03;;;;;;;10.53;85.33;102044.34;4992183;28;20209;-85
2022/10/19 04:54:49;;;;;;;7.27;2.03;;;;;;;10.55;86.03;102050.50;4990887;28;20231;-85
2022/10/19 04:57:15;;;;;;;4.73;2.43;;;;;;;10.55;85.78;102056.69;4989796;28;20559;-86
2022/10/19 04:59:42;;;;;;;6.77;2.77;;;;;;;10.55;85.87;102055.81;4991111;28;20603;-85
2022/10/19 05:02:08;;;;;;;9.13;2.90;;;;;;;10.55;85.67;102045.16;4991470;28;20226;-85
2022/10/19 05:04:35;;;;;;;3.67;2.23;;;;;;;10.56;85.93;102060.22;4990569;28;20208;-85
2022/10/19 05:07:02;;;;;;;7.80;2.67;;;;;;;10.57;86.00;102059.28;4991743;28;20606;-85
2022/10/19 05:09:29;;;;;;;6.37;2.70;;;;;;;10.57;85.80;102061.97;4987486;28;20216;-86
2022/10/19 05:11:55;;;;;;;6.73;2.60;;;;;;;10.57;85.60;102061.97;4992531;28;20219;-85
2022/10/19 05:14:22;;;;;;;6.17;2.10;;;;;;;10.56;85.89;102054.91;4993096;28;20208;-85
2022/10/19 05:16:48;;;;;;;7.70;2.70;;;;;;;10.56;85.75;102057.56;4982831;28;20212;-85
2022/10/19 05:19:15;;;;;;;5.30;2.37;;;;;;;10.56;85.88;102055.75;4991341;28;20274;-86
2022/10/19 05:21:41;;;;;;;5.13;2.53;;;;;;;10.56;85.62;102058.44;4986869;28;20224;-84
2022/10/19 05:24:12;;;;;;;4.30;2.27;;;;;;;10.57;85.62;102056.63;4993360;28;20906;-85
2022/10/19 05:26:38;;;;;;;5.87;2.53;;;;;;;10.57;85.51;102049.47;4998833;28;20208;-85
2022/10/19 05:29:05;;;;;;;7.40;2.53;;;;;;;10.57;86.15;102049.47;4988632;28;20211;-85
2022/10/19 05:31:33;;;;;;;4.43;2.33;;;;;;;10.58;85.88;102056.53;4988824;28;20715;-84
2022/10/19 05:34:01;;;;;;;15.67;3.37;;;;;;;10.59;85.88;102052.94;5004421;28;20238;-85
2022/10/19 05:36:33;;;;;;;5.67;2.60;;;;;;;10.59;85.70;102044.97;4993020;28;20271;-84
2022/10/19 05:39:01;;;;;;;5.60;2.50;;;;;;;10.60;85.76;102053.81;4991457;28;20207;-84
2022/10/19 05:41:29;;;;;;;5.73;2.60;;;;;;;10.59;85.82;102047.63;5004619;28;20238;-85
2022/10/19 05:43:58;;;;;;;8.33;3.03;;;;;;;10.59;85.82;102044.97;4999135;28;20725;-84
2022/10/19 05:46:26;;;;;;;6.87;2.80;;;;;;;10.60;86.08;102051.16;4999077;28;20234;-85
2022/10/19 05:48:53;;;;;;;6.57;2.70;;;;;;;10.60;85.88;102053.81;4999022;28;20585;-84
2022/10/19 05:51:21;;;;;;;4.57;2.47;;;;;;;10.61;85.98;102056.41;4989672;28;20224;-85
2022/10/19 05:53:49;;;;;;;8.63;2.67;;;;;;;10.61;85.93;102058.22;5000710;28;20208;-85
2022/10/19 05:56:17;;;;;;;7.27;3.07;;;;;;;10.61;85.84;102050.22;4987299;28;20225;-84
2022/10/19 05:58:45;;;;;;;6.27;2.33;;;;;;;10.61;86.15;102050.22;4997441;28;20305;-85
2022/10/19 06:01:13;;;;;;;10.20;3.00;;;;;;;10.62;86.14;102051.97;5003629;28;20226;-84
2022/10/19 06:03:39;;;;;;;8.23;2.90;;;;;;;10.61;86.12;102051.09;4995363;28;20217;-84
2022/10/19 06:06:08;;;;;;;7.43;3.10;;;;;;;10.63;86.19;102056.34;4996546;28;20200;-85
2022/10/19 06:08:35;;;;;;;3.07;2.43;;;;;;;10.64;86.18;102050.09;4988674;28;20208;-84
2022/10/19 06:11:06;;;;;;;8.17;3.30;;;;;;;10.65;86.34;102051.84;4990913;28;20235;-85
2022/10/19 06:13:32;;;;;;;7.73;3.10;;;;;;;10.65;86.28;102042.06;4998380;28;20208;-84
2022/10/19 06:16:00;;;;;;;4.40;2.50;;;;;;;10.66;86.32;102054.44;5000956;28;20224;-86
2022/10/19 06:18:26;;;;;;;6.07;2.90;;;;;;;10.66;86.52;102054.44;4992989;28;20242;-85
2022/10/19 06:20:53;;;;;;;5.87;2.70;;;;;;;10.66;86.50;102048.25;4996135;28;20247;-85
2022/10/19 06:23:19;;;;;;;7.50;3.13;;;;;;;10.67;86.64;102053.50;5005358;28;20207;-84
2022/10/19 06:25:46;;;;;;;5.63;2.83;;;;;;;10.70;86.85;102060.50;5000373;28;20205;-85
2022/10/19 06:28:13;;;;;;;6.20;3.37;;;;;;;10.71;87.06;102060.47;4994903;28;20220;-85
2022/10/19 06:30:39;;;;;;;5.20;3.17;;;;;;;10.73;87.22;102058.59;4993618;28;20241;-85
2022/10/19 06:33:08;;;;;;;8.77;3.60;;;;;;;10.74;87.27;102063.00;4989136;28;20210;-85
2022/10/19 06:35:34;;;;;;;7.80;2.83;;;;;;;10.74;87.08;102063.00;4993303;28;20239;-86
2022/10/19 06:38:01;;;;;;;6.27;2.47;;;;;;;10.75;87.10;102066.50;4991461;28;20208;-85
2022/10/19 06:40:27;;;;;;;4.73;2.87;;;;;;;10.75;87.04;102074.50;4994168;28;20239;-85
2022/10/19 06:42:55;;;;;;;7.50;2.57;;;;;;;10.75;87.13;102077.16;4993374;28;20209;-85
2022/10/19 06:45:21;;;;;;;5.27;2.50;;;;;;;10.76;86.99;102076.22;4993897;28;20206;-84
2022/10/19 06:47:48;;;;;;;7.10;2.30;;;;;;;10.78;86.91;102090.38;4993039;28;20201;-85
2022/10/19 06:50:16;;;;;;;7.83;2.67;;;;;;;10.78;86.81;102085.03;4995188;28;20315;-85
2022/10/19 06:52:43;;;;;;;6.97;2.37;;;;;;;10.78;86.70;102085.91;4996836;28;20209;-85
2022/10/19 06:55:09;;;;;;;6.10;2.50;;;;;;;10.79;86.66;102079.66;4998689;28;20234;-86
2022/10/19 06:57:36;;;;;;;7.17;2.77;;;;;;;10.81;86.60;102086.72;4996816;28;20218;-86
2022/10/19 07:00:03;;;;;;;5.10;2.70;;;;;;;10.82;86.38;102088.44;4991378;28;20250;-85
2022/10/19 07:02:30;;;;;;;7.70;2.90;;;;;;;10.83;86.56;102083.06;4989754;28;20212;-84
2022/10/19 07:04:56;;;;;;;5.00;2.73;;;;;;;10.83;86.36;102085.72;4999246;28;20230;-84
2022/10/19 07:07:24;;;;;;;6.37;2.93;;;;;;;10.85;86.65;102083.84;4998418;28;20214;-85
2022/10/19 07:09:52;;;;;;;8.33;2.67;;;;;;;10.88;86.65;102082.88;4989398;28;20221;-85
2022/10/19 07:12:18;;;;;;;5.87;2.63;;;;;;;10.89;86.52;102087.28;4997306;28;20251;-85
2022/10/19 07:14:46;;;;;;;4.43;2.30;;;;;;;10.92;86.42;102085.34;4991939;28;20203;-85
2022/10/19 07:17:13;;;;;;;5.23;2.63;;;;;;;10.95;86.52;102092.31;4981941;28;20246;-85
2022/10/19 07:19:39;;;;;;;8.27;3.03;;;;;;;10.98;86.31;102097.53;4987995;28;20242;-85
2022/10/19 07:22:06;;;;;;;9.23;3.10;;;;;;;11.01;86.52;102086.75;4995476;28;20204;-84
2022/10/19 07:24:34;;;;;;;6.03;2.97;;;;;;;11.03;86.60;102092.88;4989347;28;20205;-86
2022/10/19 07:27:00;;;;;;;6.63;2.90;;;;;;;11.05;86.52;102097.22;4995052;28;20208;-85
2022/10/19 07:29:26;;;;;;;7.43;2.90;;;;;;;11.10;86.74;102100.56;4993069;28;20215;-85
2022/10/19 07:31:53;;;;;;;7.27;2.93;;;;;;;11.15;86.64;102100.34;4997906;28;20211;-85
2022/10/19 07:34:19;;;;;;;5.50;2.70;;;;;;;11.19;86.46;102109.97;4987917;28;20205;-85
2022/10/19 07:36:47;;;;;;;4.33;2.50;;;;;;;11.22;86.69;102101.84;4993208;28;20260;-86
2022/10/19 07:39:15;;;;;;;7.60;2.70;;;;;;;11.26;86.73;102099.91;4998892;28;20657;-86
2022/10/19 07:41:44;;;;;;;4.60;2.67;;;;;;;11.29;86.71;102113.09;4993129;28;20235;-84
2022/10/19 07:44:11;;;;;;;7.13;3.27;;;;;;;11.31;86.73;102119.22;5001999;28;20219;-87
2022/10/19 07:46:38;;;;;;;7.03;3.20;;;;;;;11.35;86.80;102107.50;5000525;28;20258;-84
2022/10/19 07:49:08;;;;;;;7.63;2.77;;;;;;;11.37;86.68;102119.84;4995951;28;20215;-85
2022/10/19 07:51:35;;;;;;;11.90;2.90;;;;;;;11.40;86.79;102118.84;4983040;28;20279;-84
2022/10/19 07:54:02;;;;;;;11.33;3.27;;;;;;;11.44;87.00;102120.44;4986769;28;20550;-83
2022/10/19 07:56:28;;;;;;;7.87;3.33;;;;;;;11.46;86.77;102132.75;4983373;28;20227;-84
2022/10/19 07:58:58;;;;;;;5.53;2.43;;;;;;;11.49;86.77;102132.63;4990209;28;20226;-85
2022/10/19 08:01:26;;;;;;;9.70;2.67;;;;;;;11.53;86.57;102130.72;4982223;28;20234;-84
2022/10/19 08:03:55;;;;;;;5.60;2.00;;;;;;;11.56;86.16;102127.91;4979754;28;20414;-85
2022/10/19 08:06:23;;;;;;;8.27;2.67;;;;;;;11.59;85.70;102132.25;4980156;28;20657;-85
2022/10/19 08:08:49;;;;;;;5.77;1.90;;;;;;;11.64;85.65;102119.56;4980658;28;20582;-86
2022/10/19 08:11:19;;;;;;;5.73;1.93;;;;;;;11.67;85.46;102125.63;4981437;28;20627;-85
2022/10/19 08:13:45;;;;;;;11.43;2.73;;;;;;;11.74;85.21;102126.22;4978050;28;20216;-86
2022/10/19 08:16:26;;;;;;;8.97;1.77;;;;;;;11.79;84.99;102126.94;4988550;28;20629;-85
2022/10/19 08:18:55;;;;;;;5.40;1.40;;;;;;;11.81;84.32;102131.28;4986205;28;20209;-85
2022/10/19 08:21:21;;;;;;;4.20;0.80;;;;;;;11.82;82.72;102132.97;4987809;28;20233;-85
2022/10/19 08:23:48;;;;;;;3.77;1.17;;;;;;;11.83;81.21;102137.38;4981303;28;20207;-85
2022/10/19 08:26:14;;;;;;;5.77;1.00;;;;;;;11.85;80.13;102129.31;4988987;28;20200;-85
2022/10/19 08:28:41;;;;;;;6.67;1.10;;;;;;;11.87;79.03;102123.91;4985268;28;20207;-85
2022/10/19 08:31:12;;;;;;;5.00;1.30;;;;;;;11.91;77.50;102123.69;4987140;28;20229;-85
2022/10/19 08:33:40;;;;;;;6.97;1.40;;;;;;;11.94;76.29;102126.22;4982956;28;20204;-84
2022/10/19 08:36:08;;;;;;;6.63;1.10;;;;;;;11.97;74.96;102130.56;4984252;28;20242;-86
2022/10/19 08:38:36;;;;;;;4.10;1.03;;;;;;;12.00;73.41;102130.44;4982873;28;20582;-86
2022/10/19 08:41:30;;;;;;;5.37;1.20;;;;;;;12.01;71.71;102119.66;4983062;28;20243;-85
2022/10/19 08:44:11;;;;;;;4.97;0.77;;;;;;;12.05;70.60;102107.03;4981875;28;20209;-85
2022/10/19 08:46:49;;;;;;;4.13;0.83;;;;;;;12.09;70.04;102113.97;4981410;28;20576;-85
2022/10/19 08:49:20;;;;;;;4.50;1.10;;;;;;;12.16;68.92;102115.44;4989092;28;20201;-85
2022/10/19 08:51:51;;;;;;;6.57;1.30;;;;;;;12.24;68.00;102115.06;4989357;28;20204;-85
2022/10/19 08:54:19;;;;;;;3.77;0.80;;;;;;;12.31;67.53;102113.84;4989244;28;20288;-85
2022/10/19 08:56:52;;;;;;;6.50;0.90;;;;;;;12.34;66.10;102119.03;4988055;28;20229;-86
2022/10/19 08:59:34;;;;;;;5.80;1.00;;;;;;;12.36;66.01;102117.16;4987612;28;20211;-86
2022/10/19 09:02:04;;;;;;;4.70;1.17;;;;;;;12.41;65.21;102124.00;4985860;28;20216;-84
2022/10/19 09:04:36;;;;;;;4.00;0.80;;;;;;;12.47;64.79;102113.03;4990881;28;20211;-85
2022/10/19 09:07:25;;;;;;;7.43;1.30;;;;;;;12.50;64.92;102115.56;4988109;28;20195;-85
2022/10/19 09:09:56;;;;;;;5.33;1.00;;;;;;;12.57;64.50;102124.13;4984947;28;20230;-84
2022/10/19 09:12:33;;;;;;;2.93;0.80;;;;;;;12.69;64.70;102120.03;4987449;28;20240;-84
2022/10/19 09:15:04;;;;;;;9.77;1.00;;;;;;;12.82;63.87;102116.66;4986005;28;20202;-85
2022/10/19 09:17:32;;;;;;;3.53;0.80;;;;;;;12.92;63.67;102113.50;4981709;28;20728;-85
2022/10/19 09:20:12;;;;;;;3.63;1.10;;;;;;;12.98;63.14;102118.56;4986640;28;20227;-86
2022/10/19 09:22:50;;;;;;;4.57;1.20;;;;;;;13.03;62.67;102116.53;4982325;28;20203;-84
2022/10/19 09:25:21;;;;;;;4.57;0.80;;;;;;;13.07;62.46;102115.44;4984833;28;20207;-86
2022/10/19 09:27:51;;;;;;;2.23;0.60;;;;;;;13.07;61.93;102118.13;4982353;28;20204;-84
2022/10/19 09:30:21;;;;;;;5.60;0.90;;;;;;;13.10;61.83;102115.25;4981113;28;20231;-84
2022/10/19 09:32:59;;;;;;;2.77;1.00;;;;;;;13.09;61.44;102117.06;4981867;28;20565;-85
2022/10/19 09:35:31;;;;;;;3.33;1.00;;;;;;;13.08;61.08;102109.13;4986079;28;20211;-86
2022/10/19 09:37:59;;;;;;;2.07;0.80;;;;;;;13.07;60.90;102113.63;4989463;28;20196;-85
2022/10/19 09:40:27;;;;;;;3.17;0.87;;;;;;;13.09;61.21;102116.22;4990606;28;20242;-85
2022/10/19 09:42:57;;;;;;;5.80;1.00;;;;;;;13.11;61.27;102120.53;4984768;28;20212;-85
2022/10/19 09:45:34;;;;;;;3.70;0.80;;;;;;;13.13;61.22;102123.16;4979593;28;20203;-85
2022/10/19 09:48:03;;;;;;;8.60;1.03;;;;;;;13.15;60.90;102118.63;4980050;28;20215;-85
2022/10/19 09:50:31;;;;;;;7.03;1.27;;;;;;;13.18;61.05;102115.78;4984261;28;20231;-86
2022/10/19 09:52:59;;;;;;;5.23;1.30;;;;;;;13.22;60.88;102124.53;4980453;28;20619;-84
2022/10/19 09:55:36;;;;;;;3.33;0.90;;;;;;;13.26;60.63;102126.09;4979374;28;20627;-84
2022/10/19 09:58:05;;;;;;;5.70;1.20;;;;;;;13.29;60.50;102121.44;4979810;28;20267;-84
2022/10/19 10:00:36;;;;;;;4.57;0.93;;;;;;;13.30;60.70;102127.66;4983858;28;20235;-85
2022/10/19 10:03:07;;;;;;;2.43;0.60;;;;;;;13.32;60.17;102125.78;4982595;28;20263;-85
2022/10/19 10:05:37;;;;;;;3.30;0.67;;;;;;;13.33;60.04;102127.50;4983911;28;20205;-84
2022/10/19 10:08:12;;;;;;;2.87;1.03;;;;;;;13.32;59.70;102125.78;4980320;28;20203;-84
2022/10/19 10:10:44;;;;;;;3.13;0.80;;;;;;;13.34;59.70;102126.56;4986089;28;20242;-84
2022/10/19 10:13:17;;;;;;;4.13;0.90;;;;;;;13.37;59.76;102127.28;4982270;28;20201;-84
2022/10/19 10:15:48;;;;;;;2.77;0.60;;;;;;;13.40;59.91;102129.81;4979375;28;20680;-84
2022/10/19 10:18:17;;;;;;;4.93;0.80;;;;;;;13.43;60.13;102126.13;4979873;28;20526;-84
2022/10/19 10:21:01;;;;;;;3.27;0.80;;;;;;;13.45;59.41;102124.19;4982140;28;20228;-84
2022/10/19 10:23:31;;;;;;;5.57;1.23;;;;;;;13.44;59.81;102122.47;4979128;28;20204;-84
2022/10/19 10:25:59;;;;;;;3.07;0.90;;;;;;;13.44;59.45;102128.69;4985676;28;20243;-85
2022/10/19 10:28:28;;;;;;;2.77;0.80;;;;;;;13.45;59.49;102125.06;4980975;28;20560;-84
2022/10/19 10:31:01;;;;;;;2.90;0.70;;;;;;;13.46;59.64;102121.44;4983381;28;20768;-84
2022/10/19 10:33:33;;;;;;;4.40;1.00;;;;;;;13.47;59.03;102119.63;4985265;28;20681;-84
2022/10/19 10:36:07;;;;;;;5.03;1.13;;;;;;;13.47;59.22;102123.19;4981433;28;20208;-85
2022/10/19 10:38:36;;;;;;;4.07;0.97;;;;;;;13.49;58.93;102121.28;4985850;28;20211;-81
2022/10/19 10:41:07;;;;;;;3.90;1.40;;;;;;;13.50;58.73;102122.16;4984190;28;20694;-82
2022/10/19 10:43:48;;;;;;;2.73;1.03;;;;;;;13.52;59.15;102126.47;4989264;28;20211;-82
2022/10/19 10:46:19;;;;;;;4.67;1.30;;;;;;;13.55;58.98;102133.50;4983023;28;20578;-81
2022/10/19 10:48:53;;;;;;;4.20;0.90;;;;;;;13.55;58.89;102136.16;4983151;28;20678;-81
2022/10/19 10:51:27;;;;;;;4.20;0.90;;;;;;;13.59;58.98;102132.41;4981486;28;20223;-82
2022/10/19 10:54:09;;;;;;;5.07;1.30;;;;;;;13.65;59.05;102126.69;4989873;28;20604;-82
2022/10/19 10:56:39;;;;;;;3.60;1.13;;;;;;;13.71;58.84;102112.13;4985140;28;20717;-81
2022/10/19 10:59:14;;;;;;;4.30;1.27;;;;;;;13.75;58.67;102111.91;4987087;28;20562;-82
2022/10/19 11:01:42;;;;;;;4.27;1.53;;;;;;;13.80;58.60;102099.09;4986203;28;20598;-81
2022/10/19 11:04:13;;;;;;;3.20;0.80;;;;;;;13.82;58.45;102113.28;4984875;28;20202;-81
2022/10/19 11:06:45;;;;;;;4.87;1.10;;;;;;;13.86;58.76;102108.63;4987286;28;20200;-81
2022/10/19 11:09:17;;;;;;;6.07;1.20;;;;;;;13.90;58.65;102112.88;4978719;28;20212;-81
2022/10/19 11:11:47;;;;;;;4.80;1.20;;;;;;;13.90;58.43;102107.53;4979599;28;20239;-81
2022/10/19 11:14:37;;;;;;;4.00;1.07;;;;;;;13.89;58.64;102101.31;4984625;28;20219;-81
2022/10/19 11:17:07;;;;;;;4.00;1.20;;;;;;;13.91;58.11;102095.88;4983298;28;20760;-81
2022/10/19 11:19:36;;;;;;;3.50;0.87;;;;;;;13.92;58.31;102097.59;4983890;28;20207;-81
2022/10/19 11:22:14;;;;;;;2.63;1.10;;;;;;;13.93;58.17;102083.25;4982044;28;20577;-82
2022/10/19 11:24:53;;;;;;;5.83;1.33;;;;;;;13.95;58.20;102078.69;4986377;28;20214;-81
2022/10/19 11:27:31;;;;;;;3.27;0.90;;;;;;;13.97;58.25;102073.25;4982700;28;20204;-81
2022/10/19 11:30:07;;;;;;;3.67;1.10;;;;;;;13.97;58.21;102068.75;4986643;28;20220;-81
2022/10/19 11:32:43;;;;;;;5.03;1.27;;;;;;;14.01;58.25;102072.09;4984007;28;20207;-82
2022/10/19 11:35:20;;;;;;;2.87;0.90;;;;;;;14.02;58.22;102071.16;4985999;28;20194;-81